POGODA: Poland

Lotnisko: Katowice

METAR KOD: EPKT


METAR: EPKT 300430Z 11003KT 060V140 8000 NSC 19/17 Q1009


BLOK
Pogoda METAR
300430Z
Dzien: 30, Godzina: 04:30 UTC.
11003KT
Wiatr z kierunku 110, o predkosci 6 km/h
060V140
Wiatr zmienny pomiedzy 060 i 140
8000
Widzialnosc pozioma 8000 m.
NSC
brak istotnych chmur
19/17
Temperatura: powietrze 19°C, punkt rosy 17°C . Wilgotnosc wzgledna 89 %
Q1009
Cisnienie: 1009 hPa

Pogoda na innym lotnisku

Pogoda Gdansk-Rebiechowo WEATHER Poland  
Pogoda Katowice WEATHER Poland  
Pogoda Krakow WEATHER Poland  
Pogoda Poznan WEATHER Poland  
Pogoda Rzeszow-Jasionka WEATHER Poland  
Pogoda Szczecin WEATHER Poland  
Pogoda Warszawa-Okecie WEATHER Poland  
Pogoda Wroclaw Ii WEATHER Poland  

Pogoda w inny kraju

Strona startowa

(C) by GREGOR 2007
Ogłoszenia Towarzyskie